createdAt,value
2019-05-19T00:02:28.177Z,82.36
2019-05-19T00:04:57.136Z,83.36
2019-05-19T00:07:26.225Z,82.74
2019-05-19T00:12:33.612Z,81.89
2019-05-19T00:15:02.296Z,82.27
2019-05-19T00:17:31.304Z,82.65
2019-05-19T00:20:00.390Z,80.73
2019-05-19T00:22:29.751Z,83.14
2019-05-19T00:27:45.327Z,84.67
2019-05-19T00:30:14.592Z,83.31
2019-05-19T00:32:43.391Z,83.24
2019-05-19T00:35:12.482Z,81.71
2019-05-19T00:37:41.466Z,83.12
2019-05-19T00:42:49.872Z,80.00
2019-05-19T00:45:18.767Z,79.98
2019-05-19T00:47:47.417Z,80.12
2019-05-19T00:50:16.233Z,80.86
2019-05-19T00:52:45.548Z,81.57
2019-05-19T00:55:14.554Z,79.72
2019-05-19T01:00:21.983Z,80.93
2019-05-19T01:05:28.335Z,81.53
2019-05-19T01:07:57.136Z,81.55
2019-05-19T01:10:25.812Z,82.21
2019-05-19T01:12:54.974Z,82.83
2019-05-19T01:18:02.253Z,83.47
2019-05-19T01:20:32.893Z,82.65
2019-05-19T01:23:02.166Z,83.34
2019-05-19T01:25:30.903Z,83.08
2019-05-19T01:27:59.604Z,84.20
2019-05-19T01:30:29.176Z,84.34
2019-05-19T01:35:38.542Z,83.10
2019-05-19T01:40:44.930Z,82.91
2019-05-19T01:43:13.958Z,82.35
2019-05-19T01:45:42.688Z,82.81
2019-05-19T01:48:11.858Z,81.88
2019-05-19T01:53:21.172Z,86.16
2019-05-19T01:55:50.280Z,84.72
2019-05-19T01:58:19.479Z,84.94
2019-05-19T02:00:48.341Z,86.92
2019-05-19T02:03:18.374Z,86.03
2019-05-19T02:08:33.190Z,90.61
2019-05-19T02:11:01.875Z,92.31
2019-05-19T02:13:30.653Z,93.66
2019-05-19T02:16:00.638Z,100.00
2019-05-19T02:21:10.026Z,92.04
2019-05-19T02:23:40.571Z,88.05
2019-05-19T02:26:10.107Z,90.30
2019-05-19T02:28:38.942Z,89.03
2019-05-19T02:31:07.687Z,86.13
2019-05-19T02:33:39.904Z,84.72
2019-05-19T02:36:08.626Z,86.97
2019-05-19T02:38:37.570Z,85.70
2019-05-19T02:41:09.208Z,83.63
2019-05-19T02:43:38.926Z,84.30
2019-05-19T02:46:09.022Z,85.00
2019-05-19T02:48:39.599Z,84.16
2019-05-19T02:51:12.061Z,84.20
2019-05-19T02:53:43.853Z,83.25
2019-05-19T02:56:13.413Z,84.77
2019-05-19T03:01:22.425Z,84.69
2019-05-19T03:06:28.618Z,83.58
2019-05-19T03:08:57.792Z,83.26
2019-05-19T03:14:16.727Z,84.39
2019-05-19T03:16:45.742Z,84.24
2019-05-19T03:19:14.430Z,84.89
2019-05-19T03:24:23.649Z,83.90
2019-05-19T03:26:53.604Z,84.69
2019-05-19T03:32:28.392Z,84.82
2019-05-19T03:37:37.273Z,87.27
2019-05-19T03:40:19.138Z,88.07
2019-05-19T03:42:50.129Z,89.80
2019-05-19T03:45:18.966Z,86.79
2019-05-19T03:47:47.591Z,88.05
2019-05-19T03:50:16.503Z,85.02
2019-05-19T03:52:45.177Z,87.03
2019-05-19T03:55:14.220Z,89.59
2019-05-19T03:57:43.398Z,89.49
2019-05-19T04:02:55.955Z,91.04
2019-05-19T04:08:02.135Z,93.65
2019-05-19T04:10:30.834Z,90.04
2019-05-19T04:15:44.037Z,100.00
2019-05-19T04:18:12.741Z,100.00
2019-05-19T04:20:42.012Z,100.00
2019-05-19T04:23:11.146Z,97.37
2019-05-19T04:25:39.949Z,100.00
2019-05-19T04:30:46.178Z,89.86
2019-05-19T04:33:15.516Z,87.87
2019-05-19T04:35:44.565Z,100.00
2019-05-19T04:38:13.587Z,94.82
2019-05-19T04:40:42.647Z,89.56
2019-05-19T04:45:50.330Z,90.13
2019-05-19T04:48:19.328Z,95.24
2019-05-19T04:50:47.979Z,88.58
2019-05-19T04:55:54.726Z,87.73
2019-05-19T05:01:04.253Z,100.00
2019-05-19T05:03:33.512Z,97.47
2019-05-19T05:08:40.758Z,98.33
2019-05-19T05:13:50.831Z,94.20
2019-05-19T05:16:19.491Z,94.94
2019-05-19T05:21:28.969Z,91.54
2019-05-19T05:23:57.640Z,91.37
2019-05-19T05:26:27.046Z,89.68
2019-05-19T05:28:55.697Z,90.28
2019-05-19T05:31:24.366Z,91.58
2019-05-19T05:36:33.206Z,89.68
2019-05-19T05:39:01.943Z,89.28
2019-05-19T05:41:30.612Z,89.62
2019-05-19T05:43:59.306Z,87.10
2019-05-19T05:46:28.422Z,87.78
2019-05-19T05:48:57.750Z,88.52
2019-05-19T05:54:03.988Z,85.00
2019-05-19T05:56:33.474Z,85.17
2019-05-19T06:01:42.055Z,86.19
2019-05-19T06:04:11.080Z,82.96
2019-05-19T06:06:39.815Z,82.12
2019-05-19T06:09:09.409Z,81.01
2019-05-19T06:11:38.515Z,80.97
2019-05-19T06:16:47.786Z,80.77
2019-05-19T06:19:16.409Z,81.48
2019-05-19T06:21:45.056Z,78.23
2019-05-19T06:24:13.709Z,77.61
2019-05-19T06:29:23.259Z,77.12
2019-05-19T06:34:47.419Z,74.39
2019-05-19T06:37:16.489Z,73.98
2019-05-19T06:39:45.184Z,74.68
2019-05-19T06:42:14.920Z,72.31
2019-05-19T06:44:44.192Z,71.60
2019-05-19T06:47:13.232Z,72.44
2019-05-19T06:52:23.110Z,71.80
2019-05-19T06:54:52.309Z,68.22
2019-05-19T06:57:20.996Z,68.90
2019-05-19T06:59:49.693Z,68.00
2019-05-19T07:04:59.361Z,67.25
2019-05-19T07:07:28.043Z,66.80
2019-05-19T07:09:58.890Z,67.02
2019-05-19T07:12:27.620Z,65.38
2019-05-19T07:17:41.768Z,66.33
2019-05-19T07:20:11.232Z,65.46
2019-05-19T07:25:20.098Z,65.22
2019-05-19T07:27:48.764Z,63.96
2019-05-19T07:30:18.339Z,63.48
2019-05-19T07:32:47.044Z,62.33
2019-05-19T07:35:15.700Z,63.88
2019-05-19T07:37:44.707Z,61.32
2019-05-19T07:42:53.525Z,62.14
2019-05-19T07:48:02.321Z,59.57
2019-05-19T07:50:30.955Z,59.43
2019-05-19T07:55:37.901Z,57.63
2019-05-19T07:58:07.005Z,56.65
2019-05-19T08:00:36.416Z,54.89
2019-05-19T08:03:05.486Z,57.75
2019-05-19T08:05:34.960Z,58.01
2019-05-19T08:08:04.038Z,56.83
2019-05-19T08:10:33.084Z,54.37
2019-05-19T08:13:01.720Z,53.55
2019-05-19T08:15:30.686Z,52.79
2019-05-19T08:17:59.491Z,52.39
2019-05-19T08:20:28.504Z,49.59
2019-05-19T08:22:57.137Z,51.88
2019-05-19T08:25:26.652Z,48.75
2019-05-19T08:30:33.976Z,50.57
2019-05-19T08:33:03.089Z,50.02
2019-05-19T08:35:31.800Z,48.53
2019-05-19T08:38:00.867Z,47.77
2019-05-19T08:40:29.951Z,46.21
2019-05-19T08:45:36.915Z,44.87
2019-05-19T08:48:07.506Z,45.05
2019-05-19T08:50:36.371Z,45.41
2019-05-19T08:53:05.045Z,44.20
2019-05-19T08:55:33.713Z,43.35
2019-05-19T09:00:41.147Z,43.44
2019-05-19T09:03:09.812Z,44.59
2019-05-19T09:05:38.575Z,43.85
2019-05-19T09:08:08.227Z,41.75
2019-05-19T09:10:36.851Z,43.18
2019-05-19T09:13:05.585Z,42.70
2019-05-19T09:15:34.303Z,42.35
2019-05-19T09:18:03.350Z,41.93
2019-05-19T09:23:11.898Z,40.88
2019-05-19T09:25:41.026Z,40.98
2019-05-19T09:30:47.630Z,41.10
2019-05-19T09:33:16.300Z,40.88
2019-05-19T09:35:44.956Z,40.49
2019-05-19T09:38:14.685Z,41.42
2019-05-19T09:40:43.299Z,41.46
2019-05-19T09:45:50.105Z,40.58
2019-05-19T09:48:19.230Z,40.41
2019-05-19T09:50:47.905Z,40.18
2019-05-19T09:53:16.641Z,39.31
2019-05-19T09:55:45.744Z,37.75
2019-05-19T09:58:18.978Z,39.34
2019-05-19T10:03:24.327Z,35.49
2019-05-19T10:05:53.272Z,38.06
2019-05-19T10:12:00.364Z,36.49
2019-05-19T10:14:29.428Z,37.04
2019-05-19T10:16:58.472Z,37.20
2019-05-19T10:19:27.139Z,35.89
2019-05-19T10:21:55.885Z,36.62
2019-05-19T10:24:24.531Z,35.58
2019-05-19T10:26:53.539Z,34.75
2019-05-19T10:29:22.279Z,34.55
2019-05-19T10:31:54.302Z,35.58
2019-05-19T10:37:00.506Z,34.92
2019-05-19T10:39:29.572Z,35.01
2019-05-19T10:41:58.641Z,34.72
2019-05-19T10:44:27.304Z,34.45
2019-05-19T10:46:56.016Z,36.28
2019-05-19T10:49:25.639Z,34.00
2019-05-19T10:51:54.753Z,35.39
2019-05-19T10:54:23.479Z,34.22
2019-05-19T10:56:53.059Z,34.15
2019-05-19T10:59:22.441Z,34.25
2019-05-19T11:01:51.750Z,33.34
2019-05-19T11:07:00.856Z,34.67
2019-05-19T11:09:30.013Z,35.04
2019-05-19T11:11:59.140Z,34.27
2019-05-19T11:14:27.840Z,34.59
2019-05-19T11:16:56.936Z,34.99
2019-05-19T11:19:25.958Z,35.98
2019-05-19T11:21:54.674Z,37.43
2019-05-19T11:24:23.715Z,34.20
2019-05-19T11:26:53.387Z,34.89
2019-05-19T11:29:22.176Z,34.87
2019-05-19T11:34:30.789Z,34.67
2019-05-19T11:39:47.249Z,36.80
2019-05-19T11:42:15.862Z,36.96
2019-05-19T11:44:44.490Z,36.20
2019-05-19T11:47:13.492Z,35.86
2019-05-19T11:49:43.743Z,35.89
2019-05-19T11:52:12.608Z,34.33
2019-05-19T11:54:41.676Z,33.67
2019-05-19T11:57:10.336Z,32.04
2019-05-19T11:59:41.593Z,34.06
2019-05-19T12:02:11.649Z,33.67
2019-05-19T12:07:18.324Z,35.00
2019-05-19T12:09:47.415Z,35.60
2019-05-19T12:12:16.180Z,37.43
2019-05-19T12:14:45.238Z,36.04
2019-05-19T12:19:59.983Z,35.01
2019-05-19T12:22:29.090Z,34.06
2019-05-19T12:24:58.011Z,35.92
2019-05-19T12:30:04.655Z,35.96
2019-05-19T12:32:35.041Z,35.26
2019-05-19T12:35:04.429Z,35.24
2019-05-19T12:40:11.738Z,34.77
2019-05-19T12:42:40.482Z,35.15
2019-05-19T12:45:10.457Z,35.72
2019-05-19T12:47:39.207Z,35.08
2019-05-19T12:52:53.048Z,37.34
2019-05-19T12:55:22.860Z,33.85
2019-05-19T12:57:51.594Z,33.40
2019-05-19T13:00:20.915Z,32.06
2019-05-19T13:02:50.205Z,35.72
2019-05-19T13:05:19.232Z,34.92
2019-05-19T13:07:48.232Z,36.43
2019-05-19T13:10:17.471Z,36.44
2019-05-19T13:15:27.110Z,35.02
2019-05-19T13:17:55.757Z,35.09
2019-05-19T13:23:08.417Z,36.29
2019-05-19T13:25:37.356Z,34.34
2019-05-19T13:28:06.444Z,34.63
2019-05-19T13:30:35.136Z,35.11
2019-05-19T13:33:03.811Z,35.12
2019-05-19T13:35:32.834Z,34.60
2019-05-19T13:38:01.935Z,35.07
2019-05-19T13:40:31.751Z,35.70
2019-05-19T13:43:00.765Z,35.75
2019-05-19T13:45:29.848Z,34.40
2019-05-19T13:47:58.477Z,34.94
2019-05-19T13:50:27.521Z,34.53
2019-05-19T13:52:56.637Z,35.45
2019-05-19T13:55:25.657Z,35.93
2019-05-19T13:57:54.346Z,35.93
2019-05-19T14:00:23.062Z,36.46
2019-05-19T14:02:52.196Z,35.83
2019-05-19T14:05:21.271Z,35.14
2019-05-19T14:07:50.343Z,33.06
2019-05-19T14:10:18.965Z,34.24
2019-05-19T14:15:33.411Z,35.55
2019-05-19T14:20:41.132Z,33.57
2019-05-19T14:23:10.142Z,32.57
2019-05-19T14:25:38.895Z,32.07
2019-05-19T14:28:07.604Z,33.33
2019-05-19T14:33:21.833Z,31.05
2019-05-19T14:38:29.817Z,30.07
2019-05-19T14:40:59.200Z,30.54
2019-05-19T14:46:07.258Z,31.25
2019-05-19T14:48:35.908Z,34.56
2019-05-19T14:51:04.959Z,32.66
2019-05-19T14:53:33.677Z,31.27
2019-05-19T14:56:02.456Z,30.35
2019-05-19T14:58:31.775Z,31.16
2019-05-19T15:03:41.425Z,32.23
2019-05-19T15:06:10.517Z,34.08
2019-05-19T15:11:22.134Z,33.51
2019-05-19T15:13:51.257Z,33.11
2019-05-19T15:16:19.895Z,32.31
2019-05-19T15:18:48.591Z,32.40
2019-05-19T15:21:17.609Z,32.83
2019-05-19T15:26:35.107Z,35.18
2019-05-19T15:29:04.239Z,34.55
2019-05-19T15:31:33.211Z,35.04
2019-05-19T15:34:02.237Z,35.75
2019-05-19T15:39:16.427Z,37.36
2019-05-19T15:41:45.054Z,36.84
2019-05-19T15:44:13.979Z,38.13
2019-05-19T15:46:42.654Z,37.68
2019-05-19T15:52:01.535Z,35.42
2019-05-19T15:54:25.260Z,37.70
2019-05-19T15:56:55.295Z,37.29
2019-05-19T15:59:24.686Z,37.36
2019-05-19T16:01:53.396Z,36.76
2019-05-19T16:04:22.073Z,37.49
2019-05-19T16:06:50.974Z,35.29
2019-05-19T16:09:19.650Z,33.31
2019-05-19T16:14:38.103Z,34.31
2019-05-19T16:19:44.323Z,33.25
2019-05-19T16:22:13.392Z,33.29
2019-05-19T16:24:42.027Z,32.97
2019-05-19T16:29:49.562Z,33.50
2019-05-19T16:35:03.424Z,33.22
2019-05-19T16:37:32.455Z,33.21
2019-05-19T16:40:01.754Z,33.42
2019-05-19T16:42:30.465Z,33.25
2019-05-19T16:47:43.589Z,32.86
2019-05-19T16:50:12.551Z,32.97
2019-05-19T16:52:41.275Z,32.94
2019-05-19T16:55:24.500Z,33.07
2019-05-19T17:00:33.526Z,33.37
2019-05-19T17:05:48.789Z,33.86
2019-05-19T17:08:19.100Z,33.86
2019-05-19T17:10:48.031Z,34.03
2019-05-19T17:16:03.907Z,34.59
2019-05-19T17:18:32.942Z,32.92
2019-05-19T17:21:01.586Z,33.34
2019-05-19T17:23:30.742Z,33.41
2019-05-19T17:25:59.572Z,33.80
2019-05-19T17:28:28.227Z,33.34
2019-05-19T17:30:57.001Z,33.79
2019-05-19T17:33:26.549Z,34.04
2019-05-19T17:35:55.278Z,33.96
2019-05-19T17:41:05.118Z,35.43
2019-05-19T17:43:33.809Z,35.49
2019-05-19T17:46:02.937Z,36.32
2019-05-19T17:48:31.627Z,37.50
2019-05-19T17:51:00.351Z,36.21
2019-05-19T17:53:29.531Z,35.00
2019-05-19T17:58:46.053Z,36.14
2019-05-19T18:01:15.101Z,36.50
2019-05-19T18:03:44.966Z,37.48
2019-05-19T18:06:13.688Z,39.02
2019-05-19T18:08:42.803Z,39.87
2019-05-19T18:13:50.806Z,39.14
2019-05-19T18:16:19.606Z,41.48
2019-05-19T18:18:48.536Z,40.70
2019-05-19T18:21:17.186Z,42.67
2019-05-19T18:23:46.179Z,41.92
2019-05-19T18:26:14.804Z,42.61
2019-05-19T18:28:43.879Z,43.06
2019-05-19T18:33:49.829Z,43.62
2019-05-19T18:36:18.918Z,44.63
2019-05-19T18:38:47.626Z,45.27
2019-05-19T18:41:16.704Z,45.60
2019-05-19T18:43:45.346Z,45.72
2019-05-19T18:46:14.015Z,46.42
2019-05-19T18:51:21.602Z,46.56
2019-05-19T18:56:30.358Z,46.72
2019-05-19T18:58:59.408Z,47.69
2019-05-19T19:01:28.488Z,47.93
2019-05-19T19:03:57.492Z,48.88
2019-05-19T19:06:31.174Z,49.14
2019-05-19T19:09:00.210Z,49.02
2019-05-19T19:14:10.477Z,49.21
2019-05-19T19:16:39.573Z,48.90
2019-05-19T19:21:48.906Z,49.45
2019-05-19T19:27:00.935Z,50.61
2019-05-19T19:29:29.888Z,51.04
2019-05-19T19:31:58.543Z,50.36
2019-05-19T19:34:27.275Z,50.38
2019-05-19T19:36:57.046Z,50.44
2019-05-19T19:39:25.760Z,51.38
2019-05-19T19:41:54.484Z,51.77
2019-05-19T19:44:23.227Z,52.21
2019-05-19T19:49:36.896Z,52.73
2019-05-19T19:52:06.242Z,52.90
2019-05-19T19:54:34.850Z,52.90
2019-05-19T19:59:43.087Z,53.22
2019-05-19T20:04:49.784Z,54.14
2019-05-19T20:07:18.429Z,54.14
2019-05-19T20:12:25.620Z,54.51
2019-05-19T20:14:54.285Z,54.55
2019-05-19T20:17:23.110Z,54.34
2019-05-19T20:19:52.485Z,55.17
2019-05-19T20:22:21.256Z,55.32
2019-05-19T20:27:31.133Z,55.71
2019-05-19T20:30:00.245Z,55.75
2019-05-19T20:35:12.845Z,56.50
2019-05-19T20:37:41.986Z,56.91
2019-05-19T20:40:11.908Z,56.93
2019-05-19T20:42:41.315Z,57.36
2019-05-19T20:45:10.105Z,56.71
2019-05-19T20:47:38.801Z,57.64
2019-05-19T20:50:07.625Z,56.85
2019-05-19T20:55:16.232Z,56.90
2019-05-19T20:57:44.874Z,57.42
2019-05-19T21:06:48.638Z,57.76
2019-05-19T21:09:17.753Z,58.36
2019-05-19T21:11:46.708Z,57.25
2019-05-19T21:14:15.514Z,57.51
2019-05-19T21:16:44.181Z,57.99
2019-05-19T21:21:51.370Z,59.03
2019-05-19T21:24:20.016Z,58.64
2019-05-19T21:29:36.142Z,58.71
2019-05-19T21:32:05.394Z,58.61
2019-05-19T21:34:34.071Z,59.24
2019-05-19T21:37:02.770Z,58.51
2019-05-19T21:39:31.567Z,59.04
2019-05-19T21:42:00.254Z,59.46
2019-05-19T21:44:29.979Z,59.39
2019-05-19T21:49:38.625Z,60.10
2019-05-19T21:52:07.712Z,60.38
2019-05-19T21:54:36.786Z,60.30
2019-05-19T21:57:05.483Z,59.80
2019-05-19T21:59:34.130Z,60.99
2019-05-19T22:02:02.891Z,61.41
2019-05-19T22:07:16.484Z,62.20
2019-05-19T22:09:45.858Z,61.37
2019-05-19T22:12:14.857Z,62.10
2019-05-19T22:17:25.627Z,61.83
2019-05-19T22:19:54.314Z,62.52
2019-05-19T22:22:23.911Z,62.39
2019-05-19T22:27:40.712Z,62.99
2019-05-19T22:30:10.215Z,63.08
2019-05-19T22:32:38.857Z,62.75
2019-05-19T22:35:12.191Z,62.97
2019-05-19T22:37:41.360Z,63.75
2019-05-19T22:40:10.354Z,64.22
2019-05-19T22:42:39.245Z,64.23
2019-05-19T22:45:08.275Z,64.03
2019-05-19T22:47:37.998Z,63.67
2019-05-19T22:52:47.455Z,64.52
2019-05-19T22:55:16.119Z,64.41
2019-05-19T22:57:45.078Z,65.12
2019-05-19T23:00:16.445Z,64.86
2019-05-19T23:02:44.997Z,65.09
2019-05-19T23:07:53.574Z,65.11
2019-05-19T23:13:00.425Z,64.99
2019-05-19T23:18:06.896Z,65.72
2019-05-19T23:20:35.855Z,66.33
2019-05-19T23:25:45.116Z,66.20
2019-05-19T23:28:14.166Z,66.99
2019-05-19T23:30:43.558Z,67.63
2019-05-19T23:33:12.649Z,67.74
2019-05-19T23:35:41.657Z,68.29
2019-05-19T23:38:11.265Z,68.25
2019-05-19T23:40:40.535Z,68.32
2019-05-19T23:45:56.052Z,70.05
2019-05-19T23:48:25.449Z,70.07
2019-05-19T23:50:54.121Z,70.30
2019-05-19T23:53:23.601Z,70.52
2019-05-19T23:58:32.487Z,71.44
